sensor_id;sensor_type;location;lat;lon;timestamp;pressure;altitude;pressure_sealevel;temperature;humidity
79372;BME280;68914;51.262;6.802;2023-04-15T00:00:15;100440.16;;;9.92;56.96
79372;BME280;68914;51.262;6.802;2023-04-15T00:01:19;100438.34;;;9.92;56.45
79372;BME280;68914;51.262;6.802;2023-04-15T00:02:20;100436.72;;;9.91;56.55
79372;BME280;68914;51.262;6.802;2023-04-15T00:03:20;100432.66;;;9.95;56.44
79372;BME280;68914;51.262;6.802;2023-04-15T00:04:21;100441.56;;;9.81;56.68
79372;BME280;68914;51.262;6.802;2023-04-15T00:05:22;100444.00;;;9.82;57.29
79372;BME280;68914;51.262;6.802;2023-04-15T00:06:23;100443.59;;;9.85;56.34
79372;BME280;68914;51.262;6.802;2023-04-15T00:07:24;100438.09;;;9.74;56.67
79372;BME280;68914;51.262;6.802;2023-04-15T00:08:24;100436.72;;;9.71;57.00
79372;BME280;68914;51.262;6.802;2023-04-15T00:09:25;100445.81;;;9.75;55.93
79372;BME280;68914;51.262;6.802;2023-04-15T00:10:26;100434.69;;;9.67;56.86
79372;BME280;68914;51.262;6.802;2023-04-15T00:11:27;100435.09;;;9.83;56.18
79372;BME280;68914;51.262;6.802;2023-04-15T00:12:28;100441.97;;;9.78;56.50
79372;BME280;68914;51.262;6.802;2023-04-15T00:13:29;100443.22;;;9.82;55.98
79372;BME280;68914;51.262;6.802;2023-04-15T00:14:29;100441.97;;;9.84;55.81
79372;BME280;68914;51.262;6.802;2023-04-15T00:15:30;100441.56;;;9.74;56.76
79372;BME280;68914;51.262;6.802;2023-04-15T00:16:31;100443.38;;;9.67;57.27
79372;BME280;68914;51.262;6.802;2023-04-15T00:17:31;100441.34;;;9.69;56.91
79372;BME280;68914;51.262;6.802;2023-04-15T00:18:32;100445.19;;;9.60;56.88
79372;BME280;68914;51.262;6.802;2023-04-15T00:19:33;100440.31;;;9.50;57.48
79372;BME280;68914;51.262;6.802;2023-04-15T00:20:34;100447.19;;;9.58;56.92
79372;BME280;68914;51.262;6.802;2023-04-15T00:21:34;100443.56;;;9.66;57.12
79372;BME280;68914;51.262;6.802;2023-04-15T00:22:35;100442.16;;;9.56;56.78
79372;BME280;68914;51.262;6.802;2023-04-15T00:23:36;100441.09;;;9.44;57.54
79372;BME280;68914;51.262;6.802;2023-04-15T00:24:37;100431.81;;;9.55;56.95
79372;BME280;68914;51.262;6.802;2023-04-15T00:25:38;100435.88;;;9.64;56.97
79372;BME280;68914;51.262;6.802;2023-04-15T00:26:39;100434.66;;;9.60;57.38
79372;BME280;68914;51.262;6.802;2023-04-15T00:27:39;100440.53;;;9.62;57.74
79372;BME280;68914;51.262;6.802;2023-04-15T00:28:40;100439.31;;;9.58;57.82
79372;BME280;68914;51.262;6.802;2023-04-15T00:29:41;100436.66;;;9.58;57.81
79372;BME280;68914;51.262;6.802;2023-04-15T00:30:43;100437.69;;;9.57;57.76
79372;BME280;68914;51.262;6.802;2023-04-15T00:31:43;100440.72;;;9.54;57.85
79372;BME280;68914;51.262;6.802;2023-04-15T00:32:44;100438.47;;;9.44;57.58
79372;BME280;68914;51.262;6.802;2023-04-15T00:33:46;100443.91;;;9.29;58.45
79372;BME280;68914;51.262;6.802;2023-04-15T00:34:46;100441.50;;;9.34;58.71
79372;BME280;68914;51.262;6.802;2023-04-15T00:35:47;100438.28;;;9.39;58.32
79372;BME280;68914;51.262;6.802;2023-04-15T00:36:48;100438.66;;;9.36;57.92
79372;BME280;68914;51.262;6.802;2023-04-15T00:37:48;100441.09;;;9.38;58.15
79372;BME280;68914;51.262;6.802;2023-04-15T00:38:49;100441.03;;;9.18;58.94
79372;BME280;68914;51.262;6.802;2023-04-15T00:39:50;100443.91;;;9.29;58.70
79372;BME280;68914;51.262;6.802;2023-04-15T00:40:51;100449.16;;;9.29;58.21
79372;BME280;68914;51.262;6.802;2023-04-15T00:41:52;100446.53;;;9.23;58.82
79372;BME280;68914;51.262;6.802;2023-04-15T00:42:54;100453.53;;;9.09;59.30
79372;BME280;68914;51.262;6.802;2023-04-15T00:43:54;100455.97;;;9.10;59.55
79372;BME280;68914;51.262;6.802;2023-04-15T00:44:55;100453.53;;;9.09;59.08
79372;BME280;68914;51.262;6.802;2023-04-15T00:45:57;100457.41;;;9.13;58.99
79372;BME280;68914;51.262;6.802;2023-04-15T00:46:59;100452.53;;;9.10;59.78
79372;BME280;68914;51.262;6.802;2023-04-15T00:48:00;100458.44;;;9.19;59.00
79372;BME280;68914;51.262;6.802;2023-04-15T00:49:02;100446.53;;;9.23;58.52
79372;BME280;68914;51.262;6.802;2023-04-15T00:50:04;100455.59;;;9.20;58.76
79372;BME280;68914;51.262;6.802;2023-04-15T00:51:04;100453.19;;;9.25;58.43
79372;BME280;68914;51.262;6.802;2023-04-15T00:52:06;100448.09;;;9.17;58.34
79372;BME280;68914;51.262;6.802;2023-04-15T00:53:08;100447.72;;;9.20;58.68
79372;BME280;68914;51.262;6.802;2023-04-15T00:54:08;100450.78;;;9.30;58.25
79372;BME280;68914;51.262;6.802;2023-04-15T00:55:09;100454.59;;;9.21;58.56
79372;BME280;68914;51.262;6.802;2023-04-15T00:56:10;100450.94;;;9.22;58.75
79372;BME280;68914;51.262;6.802;2023-04-15T00:57:11;100444.47;;;9.18;58.83
79372;BME280;68914;51.262;6.802;2023-04-15T00:58:11;100451.78;;;9.23;59.40
79372;BME280;68914;51.262;6.802;2023-04-15T00:59:13;100447.31;;;9.17;59.33
79372;BME280;68914;51.262;6.802;2023-04-15T01:00:15;100452.78;;;9.22;58.95
79372;BME280;68914;51.262;6.802;2023-04-15T01:01:20;100444.47;;;9.11;59.68
79372;BME280;68914;51.262;6.802;2023-04-15T01:02:22;100445.06;;;9.14;58.93
79372;BME280;68914;51.262;6.802;2023-04-15T01:03:23;100447.06;;;9.05;59.68
79372;BME280;68914;51.262;6.802;2023-04-15T01:04:23;100442.59;;;9.05;59.99
79372;BME280;68914;51.262;6.802;2023-04-15T01:05:25;100442.22;;;9.08;59.62
79372;BME280;68914;51.262;6.802;2023-04-15T01:06:26;100442.19;;;9.02;59.96
79372;BME280;68914;51.262;6.802;2023-04-15T01:07:27;100446.25;;;9.04;59.83
79372;BME280;68914;51.262;6.802;2023-04-15T01:08:28;100443.63;;;9.04;59.71
79372;BME280;68914;51.262;6.802;2023-04-15T01:09:29;100441.59;;;9.06;59.07
79372;BME280;68914;51.262;6.802;2023-04-15T01:10:30;100438.13;;;8.99;59.30
79372;BME280;68914;51.262;6.802;2023-04-15T01:11:31;100442.81;;;9.04;59.61
79372;BME280;68914;51.262;6.802;2023-04-15T01:12:34;100441.53;;;8.93;59.57
79372;BME280;68914;51.262;6.802;2023-04-15T01:13:37;100445.22;;;8.99;59.64
79372;BME280;68914;51.262;6.802;2023-04-15T01:14:38;100439.72;;;8.94;59.55
79372;BME280;68914;51.262;6.802;2023-04-15T01:15:39;100435.47;;;8.93;60.37
79372;BME280;68914;51.262;6.802;2023-04-15T01:16:39;100437.06;;;8.87;60.24
79372;BME280;68914;51.262;6.802;2023-04-15T01:17:40;100436.25;;;8.86;59.98
79372;BME280;68914;51.262;6.802;2023-04-15T01:18:41;100433.84;;;8.92;59.96
79372;BME280;68914;51.262;6.802;2023-04-15T01:19:41;100434.06;;;8.97;59.34
79372;BME280;68914;51.262;6.802;2023-04-15T01:20:42;100429.44;;;8.99;59.50
79372;BME280;68914;51.262;6.802;2023-04-15T01:21:44;100430.44;;;8.98;59.30
79372;BME280;68914;51.262;6.802;2023-04-15T01:22:44;100438.69;;;8.95;59.25
79372;BME280;68914;51.262;6.802;2023-04-15T01:23:46;100431.81;;;8.94;59.32
79372;BME280;68914;51.262;6.802;2023-04-15T01:24:54;100439.34;;;8.97;59.42
79372;BME280;68914;51.262;6.802;2023-04-15T01:25:59;100433.06;;;8.98;58.85
79372;BME280;68914;51.262;6.802;2023-04-15T01:27:00;100439.72;;;8.87;59.60
79372;BME280;68914;51.262;6.802;2023-04-15T01:28:00;100433.81;;;8.85;59.86
79372;BME280;68914;51.262;6.802;2023-04-15T01:29:01;100437.09;;;8.94;59.37
79372;BME280;68914;51.262;6.802;2023-04-15T01:30:02;100432.22;;;8.91;59.96
79372;BME280;68914;51.262;6.802;2023-04-15T01:31:10;100439.72;;;8.87;59.39
79372;BME280;68914;51.262;6.802;2023-04-15T01:32:12;100442.34;;;8.94;59.95
79372;BME280;68914;51.262;6.802;2023-04-15T01:33:30;100445.56;;;8.89;59.47
79372;BME280;68914;51.262;6.802;2023-04-15T01:34:50;100431.41;;;8.83;59.74
79372;BME280;68914;51.262;6.802;2023-04-15T01:36:09;100444.38;;;8.92;59.41
79372;BME280;68914;51.262;6.802;2023-04-15T01:37:10;100440.94;;;8.91;58.82
79372;BME280;68914;51.262;6.802;2023-04-15T01:38:10;100438.31;;;8.98;59.19
79372;BME280;68914;51.262;6.802;2023-04-15T01:39:11;100437.63;;;8.82;59.14
79372;BME280;68914;51.262;6.802;2023-04-15T01:40:12;100442.34;;;8.87;59.01
79372;BME280;68914;51.262;6.802;2023-04-15T01:41:14;100444.16;;;8.93;59.01
79372;BME280;68914;51.262;6.802;2023-04-15T01:42:16;100448.22;;;8.96;59.00
79372;BME280;68914;51.262;6.802;2023-04-15T01:43:18;100444.53;;;8.83;59.68
79372;BME280;68914;51.262;6.802;2023-04-15T01:44:20;100436.41;;;8.78;60.49
79372;BME280;68914;51.262;6.802;2023-04-15T01:45:22;100447.50;;;8.74;60.67
79372;BME280;68914;51.262;6.802;2023-04-15T01:46:24;100437.63;;;8.76;60.32
79372;BME280;68914;51.262;6.802;2023-04-15T01:47:26;100445.81;;;8.59;60.48
79372;BME280;68914;51.262;6.802;2023-04-15T01:48:28;100441.19;;;8.61;60.06
79372;BME280;68914;51.262;6.802;2023-04-15T01:49:31;100432.13;;;8.71;59.42
79372;BME280;68914;51.262;6.802;2023-04-15T01:50:35;100441.97;;;8.62;60.39
79372;BME280;68914;51.262;6.802;2023-04-15T01:51:38;100437.34;;;8.64;60.74
79372;BME280;68914;51.262;6.802;2023-04-15T01:52:41;100436.72;;;8.55;61.39
79372;BME280;68914;51.262;6.802;2023-04-15T01:53:43;100445.25;;;8.71;59.74
79372;BME280;68914;51.262;6.802;2023-04-15T01:54:44;100437.97;;;8.66;59.68
79372;BME280;68914;51.262;6.802;2023-04-15T01:55:47;100438.78;;;8.67;60.33
79372;BME280;68914;51.262;6.802;2023-04-15T01:56:49;100440.84;;;8.71;59.88
79372;BME280;68914;51.262;6.802;2023-04-15T01:57:51;100435.13;;;8.61;60.30
79372;BME280;68914;51.262;6.802;2023-04-15T01:58:53;100438.75;;;8.60;60.45
79372;BME280;68914;51.262;6.802;2023-04-15T01:59:55;100439.72;;;8.52;61.09
79372;BME280;68914;51.262;6.802;2023-04-15T02:00:57;100437.25;;;8.51;60.47
79372;BME280;68914;51.262;6.802;2023-04-15T02:01:58;100438.84;;;8.45;60.84
79372;BME280;68914;51.262;6.802;2023-04-15T02:03:02;100436.72;;;8.55;60.20
79372;BME280;68914;51.262;6.802;2023-04-15T02:04:04;100442.06;;;8.41;60.41
79372;BME280;68914;51.262;6.802;2023-04-15T02:05:06;100443.75;;;8.27;61.45
79372;BME280;68914;51.262;6.802;2023-04-15T02:06:08;100444.56;;;8.27;61.07
79372;BME280;68914;51.262;6.802;2023-04-15T02:07:10;100445.78;;;8.31;61.17
79372;BME280;68914;51.262;6.802;2023-04-15T02:08:12;100450.44;;;8.29;61.20
79372;BME280;68914;51.262;6.802;2023-04-15T02:09:14;100451.13;;;8.38;61.01
79372;BME280;68914;51.262;6.802;2023-04-15T02:10:15;100449.44;;;8.30;61.18
79372;BME280;68914;51.262;6.802;2023-04-15T02:11:17;100459.00;;;8.38;61.23
79372;BME280;68914;51.262;6.802;2023-04-15T02:12:21;100455.19;;;8.41;61.33
79372;BME280;68914;51.262;6.802;2023-04-15T02:13:23;100455.31;;;8.32;61.96
79372;BME280;68914;51.262;6.802;2023-04-15T02:14:24;100453.22;;;8.21;61.97
79372;BME280;68914;51.262;6.802;2023-04-15T02:15:29;100457.06;;;8.25;61.95
79372;BME280;68914;51.262;6.802;2023-04-15T02:16:31;100451.88;;;8.32;61.68
79372;BME280;68914;51.262;6.802;2023-04-15T02:17:34;100455.50;;;8.31;61.91
79372;BME280;68914;51.262;6.802;2023-04-15T02:18:36;100459.75;;;8.32;61.27
79372;BME280;68914;51.262;6.802;2023-04-15T02:19:38;100465.19;;;8.30;61.90
79372;BME280;68914;51.262;6.802;2023-04-15T02:20:41;100455.13;;;8.34;61.21
79372;BME280;68914;51.262;6.802;2023-04-15T02:21:44;100460.94;;;8.29;61.38
79372;BME280;68914;51.262;6.802;2023-04-15T02:22:46;100457.88;;;8.26;61.47
79372;BME280;68914;51.262;6.802;2023-04-15T02:23:50;100463.78;;;8.28;61.30
79372;BME280;68914;51.262;6.802;2023-04-15T02:24:53;100463.78;;;8.28;61.43
79372;BME280;68914;51.262;6.802;2023-04-15T02:25:54;100453.59;;;8.18;61.90
79372;BME280;68914;51.262;6.802;2023-04-15T02:26:56;100463.47;;;8.16;62.07
79372;BME280;68914;51.262;6.802;2023-04-15T02:27:58;100458.59;;;8.13;62.59
79372;BME280;68914;51.262;6.802;2023-04-15T02:29:00;100461.03;;;8.14;61.73
79372;BME280;68914;51.262;6.802;2023-04-15T02:30:02;100465.09;;;8.17;61.59
79372;BME280;68914;51.262;6.802;2023-04-15T02:31:05;100464.59;;;8.07;61.84
79372;BME280;68914;51.262;6.802;2023-04-15T02:32:07;100461.38;;;8.05;62.21
79372;BME280;68914;51.262;6.802;2023-04-15T02:33:08;100468.88;;;8.08;62.39
79372;BME280;68914;51.262;6.802;2023-04-15T02:34:10;100463.72;;;8.00;62.17
79372;BME280;68914;51.262;6.802;2023-04-15T02:35:12;100467.19;;;8.00;62.50
79372;BME280;68914;51.262;6.802;2023-04-15T02:36:14;100465.41;;;8.07;62.07
79372;BME280;68914;51.262;6.802;2023-04-15T02:37:16;100468.75;;;7.95;61.76
79372;BME280;68914;51.262;6.802;2023-04-15T02:38:19;100470.31;;;7.89;62.58
79372;BME280;68914;51.262;6.802;2023-04-15T02:39:22;100469.63;;;8.02;62.18
79372;BME280;68914;51.262;6.802;2023-04-15T02:40:24;100472.59;;;7.99;62.65
79372;BME280;68914;51.262;6.802;2023-04-15T02:41:25;100471.50;;;7.86;62.97
79372;BME280;68914;51.262;6.802;2023-04-15T02:42:29;100473.50;;;7.84;62.80
79372;BME280;68914;51.262;6.802;2023-04-15T02:43:33;100473.34;;;7.71;63.56
79372;BME280;68914;51.262;6.802;2023-04-15T02:44:35;100476.25;;;7.76;63.59
79372;BME280;68914;51.262;6.802;2023-04-15T02:45:39;100475.00;;;7.72;64.06
79372;BME280;68914;51.262;6.802;2023-04-15T02:46:41;100481.38;;;7.84;63.47
79372;BME280;68914;51.262;6.802;2023-04-15T02:47:43;100479.69;;;7.77;63.36
79372;BME280;68914;51.262;6.802;2023-04-15T02:48:46;100481.69;;;7.75;63.73
79372;BME280;68914;51.262;6.802;2023-04-15T02:49:48;100477.94;;;7.84;63.75
79372;BME280;68914;51.262;6.802;2023-04-15T02:50:50;100481.81;;;7.88;63.15
79372;BME280;68914;51.262;6.802;2023-04-15T02:51:52;100478.75;;;7.84;63.71
79372;BME280;68914;51.262;6.802;2023-04-15T02:52:55;100482.00;;;7.86;63.80
79372;BME280;68914;51.262;6.802;2023-04-15T02:53:57;100478.56;;;7.86;62.72
79372;BME280;68914;51.262;6.802;2023-04-15T02:54:58;100475.88;;;7.79;63.71
79372;BME280;68914;51.262;6.802;2023-04-15T02:56:04;100487.31;;;7.93;63.16
79372;BME280;68914;51.262;6.802;2023-04-15T02:57:06;100481.41;;;7.91;63.02
79372;BME280;68914;51.262;6.802;2023-04-15T02:58:08;100479.19;;;7.88;62.99
79372;BME280;68914;51.262;6.802;2023-04-15T02:59:11;100479.59;;;7.92;62.74
79372;BME280;68914;51.262;6.802;2023-04-15T03:00:13;100483.47;;;7.96;63.23
79372;BME280;68914;51.262;6.802;2023-04-15T03:01:17;100483.88;;;7.93;62.93
79372;BME280;68914;51.262;6.802;2023-04-15T03:02:21;100486.63;;;7.84;63.41
79372;BME280;68914;51.262;6.802;2023-04-15T03:03:22;100490.56;;;7.74;63.41
79372;BME280;68914;51.262;6.802;2023-04-15T03:04:24;100486.69;;;7.70;64.11
79372;BME280;68914;51.262;6.802;2023-04-15T03:05:26;100495.44;;;7.77;63.81
79372;BME280;68914;51.262;6.802;2023-04-15T03:06:28;100496.97;;;7.71;63.63
79372;BME280;68914;51.262;6.802;2023-04-15T03:07:30;100482.88;;;7.72;63.39
79372;BME280;68914;51.262;6.802;2023-04-15T03:08:32;100495.72;;;7.67;63.40
79372;BME280;68914;51.262;6.802;2023-04-15T03:09:34;100492.28;;;7.67;63.68
79372;BME280;68914;51.262;6.802;2023-04-15T03:10:38;100495.28;;;7.63;63.71
79372;BME280;68914;51.262;6.802;2023-04-15T03:11:39;100498.03;;;7.55;64.15
79372;BME280;68914;51.262;6.802;2023-04-15T03:12:44;100501.22;;;7.51;64.21
79372;BME280;68914;51.262;6.802;2023-04-15T03:13:50;100491.97;;;7.55;64.20
79372;BME280;68914;51.262;6.802;2023-04-15T03:15:02;100493.22;;;7.59;63.82
79372;BME280;68914;51.262;6.802;2023-04-15T03:16:11;100492.41;;;7.58;64.44
79372;BME280;68914;51.262;6.802;2023-04-15T03:17:13;100491.59;;;7.58;64.31
79372;BME280;68914;51.262;6.802;2023-04-15T03:18:14;100494.03;;;7.59;64.49
79372;BME280;68914;51.262;6.802;2023-04-15T03:19:16;100489.19;;;7.56;64.68
79372;BME280;68914;51.262;6.802;2023-04-15T03:20:19;100499.66;;;7.56;64.31
79372;BME280;68914;51.262;6.802;2023-04-15T03:21:22;100493.97;;;7.53;63.96
79372;BME280;68914;51.262;6.802;2023-04-15T03:22:24;100493.16;;;7.52;64.46
79372;BME280;68914;51.262;6.802;2023-04-15T03:23:27;100493.53;;;7.49;63.98
79372;BME280;68914;51.262;6.802;2023-04-15T03:24:32;100491.47;;;7.45;64.04
79372;BME280;68914;51.262;6.802;2023-04-15T03:25:34;100492.38;;;7.37;64.57
79372;BME280;68914;51.262;6.802;2023-04-15T03:26:38;100497.19;;;7.33;65.05
79372;BME280;68914;51.262;6.802;2023-04-15T03:27:47;100499.47;;;7.22;64.71
79372;BME280;68914;51.262;6.802;2023-04-15T03:28:49;100494.78;;;7.17;65.34
79372;BME280;68914;51.262;6.802;2023-04-15T03:29:53;100490.94;;;7.20;65.50
79372;BME280;68914;51.262;6.802;2023-04-15T03:30:57;100499.16;;;7.31;64.77
79372;BME280;68914;51.262;6.802;2023-04-15T03:31:58;100506.38;;;7.44;64.97
79372;BME280;68914;51.262;6.802;2023-04-15T03:33:00;100498.16;;;7.32;64.94
79372;BME280;68914;51.262;6.802;2023-04-15T03:34:02;100503.16;;;7.27;65.06
79372;BME280;68914;51.262;6.802;2023-04-15T03:35:04;100498.09;;;7.11;65.64
79372;BME280;68914;51.262;6.802;2023-04-15T03:36:07;100505.16;;;7.10;65.52
79372;BME280;68914;51.262;6.802;2023-04-15T03:37:08;100493.88;;;7.10;65.99
79372;BME280;68914;51.262;6.802;2023-04-15T03:38:10;100499.13;;;7.10;65.88
79372;BME280;68914;51.262;6.802;2023-04-15T03:39:12;100497.75;;;7.14;65.79
79372;BME280;68914;51.262;6.802;2023-04-15T03:40:14;100498.53;;;7.29;65.36
79372;BME280;68914;51.262;6.802;2023-04-15T03:41:16;100506.13;;;7.24;65.48
79372;BME280;68914;51.262;6.802;2023-04-15T03:42:18;100499.44;;;7.36;65.17
79372;BME280;68914;51.262;6.802;2023-04-15T03:43:19;100501.78;;;7.31;65.00
79372;BME280;68914;51.262;6.802;2023-04-15T03:44:21;100512.38;;;7.38;65.05
79372;BME280;68914;51.262;6.802;2023-04-15T03:45:24;100512.97;;;7.40;64.55
79372;BME280;68914;51.262;6.802;2023-04-15T03:46:26;100508.38;;;7.42;65.22
79372;BME280;68914;51.262;6.802;2023-04-15T03:47:28;100511.19;;;7.41;65.18
79372;BME280;68914;51.262;6.802;2023-04-15T03:48:30;100510.63;;;7.45;65.00
79372;BME280;68914;51.262;6.802;2023-04-15T03:49:31;100508.75;;;7.24;65.38
79372;BME280;68914;51.262;6.802;2023-04-15T03:50:33;100514.84;;;7.25;65.37
79372;BME280;68914;51.262;6.802;2023-04-15T03:51:35;100526.94;;;7.41;64.65
79372;BME280;68914;51.262;6.802;2023-04-15T03:52:37;100515.25;;;7.43;64.80
79372;BME280;68914;51.262;6.802;2023-04-15T03:53:39;100517.88;;;7.43;64.60
79372;BME280;68914;51.262;6.802;2023-04-15T03:54:40;100516.06;;;7.44;64.66
79372;BME280;68914;51.262;6.802;2023-04-15T03:55:42;100519.88;;;7.41;64.57
79372;BME280;68914;51.262;6.802;2023-04-15T03:56:45;100521.50;;;7.42;64.69
79372;BME280;68914;51.262;6.802;2023-04-15T03:57:47;100523.31;;;7.42;64.57
79372;BME280;68914;51.262;6.802;2023-04-15T03:58:48;100515.53;;;7.33;64.54
79372;BME280;68914;51.262;6.802;2023-04-15T03:59:50;100522.41;;;7.34;64.51
79372;BME280;68914;51.262;6.802;2023-04-15T04:00:52;100530.19;;;7.28;65.37
79372;BME280;68914;51.262;6.802;2023-04-15T04:01:55;100526.19;;;7.32;65.05
79372;BME280;68914;51.262;6.802;2023-04-15T04:02:57;100531.09;;;7.20;65.26
79372;BME280;68914;51.262;6.802;2023-04-15T04:03:58;100535.06;;;7.31;65.48
79372;BME280;68914;51.262;6.802;2023-04-15T04:05:00;100531.72;;;7.37;65.19
79372;BME280;68914;51.262;6.802;2023-04-15T04:06:02;100533.91;;;7.33;64.46
79372;BME280;68914;51.262;6.802;2023-04-15T04:07:04;100538.25;;;7.26;65.26
79372;BME280;68914;51.262;6.802;2023-04-15T04:08:06;100536.53;;;7.33;65.03
79372;BME280;68914;51.262;6.802;2023-04-15T04:09:08;100539.41;;;7.38;65.14
79372;BME280;68914;51.262;6.802;2023-04-15T04:10:10;100539.41;;;7.38;65.09
79372;BME280;68914;51.262;6.802;2023-04-15T04:11:11;100534.88;;;7.32;64.39
79372;BME280;68914;51.262;6.802;2023-04-15T04:12:13;100541.78;;;7.33;65.07
79372;BME280;68914;51.262;6.802;2023-04-15T04:13:15;100537.19;;;7.21;65.80
79372;BME280;68914;51.262;6.802;2023-04-15T04:14:17;100539.50;;;7.30;65.27
79372;BME280;68914;51.262;6.802;2023-04-15T04:15:19;100538.34;;;7.33;64.79
79372;BME280;68914;51.262;6.802;2023-04-15T04:16:21;100548.53;;;7.43;64.82
79372;BME280;68914;51.262;6.802;2023-04-15T04:17:22;100530.28;;;7.34;64.49
79372;BME280;68914;51.262;6.802;2023-04-15T04:18:24;100532.53;;;7.37;65.01
79372;BME280;68914;51.262;6.802;2023-04-15T04:19:26;100540.13;;;7.32;65.25
79372;BME280;68914;51.262;6.802;2023-04-15T04:20:28;100536.78;;;7.24;65.43
79372;BME280;68914;51.262;6.802;2023-04-15T04:21:32;100540.06;;;7.26;65.12
79372;BME280;68914;51.262;6.802;2023-04-15T04:22:40;100543.84;;;7.23;65.48
79372;BME280;68914;51.262;6.802;2023-04-15T04:23:42;100531.38;;;7.25;65.67
79372;BME280;68914;51.262;6.802;2023-04-15T04:24:44;100538.00;;;7.21;65.91
79372;BME280;68914;51.262;6.802;2023-04-15T04:25:45;100538.59;;;7.23;65.82
79372;BME280;68914;51.262;6.802;2023-04-15T04:26:48;100539.88;;;7.27;65.94
79372;BME280;68914;51.262;6.802;2023-04-15T04:27:50;100537.59;;;7.24;65.67
79372;BME280;68914;51.262;6.802;2023-04-15T04:28:52;100537.59;;;7.24;65.40
79372;BME280;68914;51.262;6.802;2023-04-15T04:29:53;100542.50;;;7.12;65.76
79372;BME280;68914;51.262;6.802;2023-04-15T04:30:55;100534.09;;;7.17;65.40
79372;BME280;68914;51.262;6.802;2023-04-15T04:31:57;100543.22;;;7.06;66.18
79372;BME280;68914;51.262;6.802;2023-04-15T04:32:59;100549.38;;;7.13;66.13
79372;BME280;68914;51.262;6.802;2023-04-15T04:34:00;100550.28;;;7.06;66.28
79372;BME280;68914;51.262;6.802;2023-04-15T04:35:03;100545.31;;;7.11;65.60
79372;BME280;68914;51.262;6.802;2023-04-15T04:36:05;100549.84;;;7.17;66.00
79372;BME280;68914;51.262;6.802;2023-04-15T04:37:07;100546.81;;;7.20;65.74
79372;BME280;68914;51.262;6.802;2023-04-15T04:38:09;100550.44;;;7.19;65.93
79372;BME280;68914;51.262;6.802;2023-04-15T04:39:11;100549.56;;;6.97;66.54
79372;BME280;68914;51.262;6.802;2023-04-15T04:40:13;100554.69;;;6.90;66.89
79372;BME280;68914;51.262;6.802;2023-04-15T04:41:15;100552.19;;;6.97;66.59
79372;BME280;68914;51.262;6.802;2023-04-15T04:42:16;100556.34;;;7.06;66.39
79372;BME280;68914;51.262;6.802;2023-04-15T04:43:18;100556.50;;;7.20;65.59
79372;BME280;68914;51.262;6.802;2023-04-15T04:44:20;100558.56;;;7.24;65.93
79372;BME280;68914;51.262;6.802;2023-04-15T04:45:22;100565.94;;;7.29;65.96
79372;BME280;68914;51.262;6.802;2023-04-15T04:46:24;100551.34;;;7.26;65.58
79372;BME280;68914;51.262;6.802;2023-04-15T04:47:26;100560.38;;;7.38;65.56
79372;BME280;68914;51.262;6.802;2023-04-15T04:48:28;100571.16;;;7.29;65.81
79372;BME280;68914;51.262;6.802;2023-04-15T04:49:29;100558.22;;;7.27;65.95
79372;BME280;68914;51.262;6.802;2023-04-15T04:50:31;100561.94;;;7.18;65.34
79372;BME280;68914;51.262;6.802;2023-04-15T04:51:33;100561.75;;;7.34;65.39
79372;BME280;68914;51.262;6.802;2023-04-15T04:52:36;100559.22;;;7.41;65.13
79372;BME280;68914;51.262;6.802;2023-04-15T04:53:37;100565.44;;;7.40;65.28
79372;BME280;68914;51.262;6.802;2023-04-15T04:54:39;100563.66;;;7.41;65.39
79372;BME280;68914;51.262;6.802;2023-04-15T04:55:41;100566.09;;;7.42;64.86
79372;BME280;68914;51.262;6.802;2023-04-15T04:56:43;100572.88;;;7.36;65.67
79372;BME280;68914;51.262;6.802;2023-04-15T04:57:45;100557.56;;;7.40;65.35
79372;BME280;68914;51.262;6.802;2023-04-15T04:58:47;100565.63;;;7.38;65.57
79372;BME280;68914;51.262;6.802;2023-04-15T04:59:49;100570.78;;;7.47;65.19
79372;BME280;68914;51.262;6.802;2023-04-15T05:00:50;100572.03;;;7.36;65.27
79372;BME280;68914;51.262;6.802;2023-04-15T05:01:52;100569.50;;;7.43;65.35
79372;BME280;68914;51.262;6.802;2023-04-15T05:02:54;100571.88;;;7.37;65.24
79372;BME280;68914;51.262;6.802;2023-04-15T05:03:56;100569.16;;;7.46;65.10
79372;BME280;68914;51.262;6.802;2023-04-15T05:04:58;100571.41;;;7.49;64.65
79372;BME280;68914;51.262;6.802;2023-04-15T05:06:00;100570.41;;;7.50;64.61
79372;BME280;68914;51.262;6.802;2023-04-15T05:07:03;100570.50;;;7.56;64.61
79372;BME280;68914;51.262;6.802;2023-04-15T05:08:05;100574.03;;;7.49;64.95
79372;BME280;68914;51.262;6.802;2023-04-15T05:09:07;100580.56;;;7.53;64.93
79372;BME280;68914;51.262;6.802;2023-04-15T05:10:09;100579.09;;;7.50;65.67
79372;BME280;68914;51.262;6.802;2023-04-15T05:11:11;100575.31;;;7.53;65.28
79372;BME280;68914;51.262;6.802;2023-04-15T05:12:13;100581.00;;;7.42;65.71
79372;BME280;68914;51.262;6.802;2023-04-15T05:13:15;100583.25;;;7.59;64.63
79372;BME280;68914;51.262;6.802;2023-04-15T05:14:17;100585.59;;;7.69;64.19
79372;BME280;68914;51.262;6.802;2023-04-15T05:15:19;100589.59;;;7.65;64.55
79372;BME280;68914;51.262;6.802;2023-04-15T05:16:21;100586.66;;;7.60;64.98
79372;BME280;68914;51.262;6.802;2023-04-15T05:17:22;100590.41;;;7.51;64.82
79372;BME280;68914;51.262;6.802;2023-04-15T05:18:24;100588.03;;;7.56;65.08
79372;BME280;68914;51.262;6.802;2023-04-15T05:19:26;100583.22;;;7.74;64.23
79372;BME280;68914;51.262;6.802;2023-04-15T05:20:28;100588.19;;;7.84;64.48
79372;BME280;68914;51.262;6.802;2023-04-15T05:21:30;100590.09;;;7.75;64.24
79372;BME280;68914;51.262;6.802;2023-04-15T05:22:32;100593.28;;;7.71;64.67
79372;BME280;68914;51.262;6.802;2023-04-15T05:23:34;100588.00;;;7.85;64.26
79372;BME280;68914;51.262;6.802;2023-04-15T05:24:35;100594.75;;;7.95;63.65
79372;BME280;68914;51.262;6.802;2023-04-15T05:25:37;100589.13;;;7.98;63.90
79372;BME280;68914;51.262;6.802;2023-04-15T05:26:39;100594.19;;;7.99;63.85
79372;BME280;68914;51.262;6.802;2023-04-15T05:27:41;100595.84;;;8.00;64.05
79372;BME280;68914;51.262;6.802;2023-04-15T05:28:43;100591.84;;;8.04;63.92